WPL weather

Powell Lake Seaplane Base
British Columbia, Canada

Public forecast

Using degrees Celsius for public forecast. Weather courtesy of forecast.io.

Closest aviation weather report (METAR) to Powell Lake Seaplane Base

Report is more than 2 hours old.

Closest report is Powell River Airport, 3.2 nm (5.9 km) SSE. Retrieved 2019/11/20 03:00 UTC (5 hours ago):

CYPW 200300Z 00000KT 30SM SKC 05/04 A3008 RMK SHLW BR OVR RWY LAST STFD OBS NEXT OBS 201500 UTC SLP190

Closest aviation forecast (TAF) to Powell Lake Seaplane Base

Closest forecast is Comox Airport, 17.2 nm (31.8 km) SW. Retrieved 2019/11/20 06:42 UTC (1 hour ago):

TAF TAF CYQQ 200539Z 2006/2106 33012KT P6SM SKC FM201100 33007KT P6SM FEW012 FM201800 32005KT P6SM SCT240 BECMG 2101/2103 28003KT RMK NXT FCST BY 201200Z